createdAt,value
2019-03-15T00:01:50.542Z,32.73
2019-03-15T00:04:19.312Z,34.73
2019-03-15T00:06:48.200Z,34.63
2019-03-15T00:09:17.637Z,35.73
2019-03-15T00:11:46.395Z,35.73
2019-03-15T00:14:15.239Z,35.77
2019-03-15T00:16:44.004Z,37.87
2019-03-15T00:19:12.894Z,36.87
2019-03-15T00:21:41.805Z,34.80
2019-03-15T00:24:10.571Z,35.93
2019-03-15T00:26:39.454Z,34.80
2019-03-15T00:29:08.885Z,37.65
2019-03-15T00:31:37.808Z,36.57
2019-03-15T00:34:06.939Z,37.63
2019-03-15T00:36:36.372Z,37.55
2019-03-15T00:39:06.645Z,36.63
2019-03-15T00:41:35.409Z,36.17
2019-03-15T00:44:04.249Z,37.47
2019-03-15T00:46:33.054Z,36.43
2019-03-15T00:49:02.485Z,36.50
2019-03-15T00:51:31.959Z,36.38
2019-03-15T00:54:01.339Z,37.63
2019-03-15T00:56:30.776Z,36.98
2019-03-15T00:58:59.614Z,37.42
2019-03-15T01:01:28.491Z,37.63
2019-03-15T01:03:57.308Z,37.83
2019-03-15T01:06:26.731Z,39.48
2019-03-15T01:08:56.169Z,37.42
2019-03-15T01:11:25.540Z,36.68
2019-03-15T01:13:54.913Z,37.35
2019-03-15T01:16:23.672Z,36.60
2019-03-15T01:18:52.499Z,38.23
2019-03-15T01:21:21.916Z,38.63
2019-03-15T01:23:50.669Z,45.10
2019-03-15T01:26:19.454Z,46.70
2019-03-15T01:28:48.810Z,39.55
2019-03-15T01:31:18.296Z,40.08
2019-03-15T01:33:47.197Z,38.80
2019-03-15T01:36:16.651Z,37.13
2019-03-15T01:38:46.147Z,36.48
2019-03-15T01:41:14.908Z,35.43
2019-03-15T01:43:44.262Z,34.45
2019-03-15T01:46:13.067Z,35.75
2019-03-15T01:48:42.596Z,36.50
2019-03-15T01:51:11.383Z,37.03
2019-03-15T01:53:40.215Z,35.60
2019-03-15T01:56:09.601Z,34.40
2019-03-15T01:58:38.395Z,33.70
2019-03-15T02:01:07.143Z,33.47
2019-03-15T02:03:35.977Z,34.20
2019-03-15T02:06:04.795Z,34.10
2019-03-15T02:08:34.147Z,34.45
2019-03-15T02:11:03.714Z,33.65
2019-03-15T02:13:32.607Z,32.80
2019-03-15T02:16:01.495Z,32.83
2019-03-15T02:18:30.327Z,31.10
2019-03-15T02:20:59.743Z,31.50
2019-03-15T02:23:29.158Z,30.60
2019-03-15T02:25:57.940Z,30.77
2019-03-15T02:28:26.762Z,30.93
2019-03-15T02:30:55.592Z,31.37
2019-03-15T02:33:24.426Z,31.23
2019-03-15T02:35:53.863Z,31.45
2019-03-15T02:38:23.292Z,33.13
2019-03-15T02:40:53.314Z,32.03
2019-03-15T02:43:22.717Z,31.77
2019-03-15T02:45:51.551Z,32.30
2019-03-15T02:48:20.335Z,33.37
2019-03-15T02:50:49.218Z,33.77
2019-03-15T02:53:18.560Z,34.45
2019-03-15T02:55:48.323Z,39.57
2019-03-15T02:58:17.270Z,36.03
2019-03-15T03:00:46.045Z,33.17
2019-03-15T03:03:14.887Z,32.27
2019-03-15T03:05:43.699Z,30.67
2019-03-15T03:08:14.163Z,31.57
2019-03-15T03:10:43.202Z,31.10
2019-03-15T03:13:11.960Z,30.72
2019-03-15T03:15:40.785Z,32.47
2019-03-15T03:18:09.552Z,33.00
2019-03-15T03:20:38.386Z,32.20
2019-03-15T03:23:07.313Z,34.07
2019-03-15T03:25:36.104Z,32.93
2019-03-15T03:28:04.958Z,33.23
2019-03-15T03:30:33.731Z,32.33
2019-03-15T03:33:02.492Z,34.17
2019-03-15T03:35:31.252Z,32.57
2019-03-15T03:38:00.112Z,34.03
2019-03-15T03:40:29.589Z,34.83
2019-03-15T03:42:58.510Z,34.63
2019-03-15T03:45:27.278Z,34.07
2019-03-15T03:47:56.118Z,34.57
2019-03-15T03:50:24.885Z,34.20
2019-03-15T03:52:53.651Z,34.57
2019-03-15T03:55:22.421Z,33.50
2019-03-15T03:57:51.271Z,33.93
2019-03-15T04:00:20.103Z,37.97
2019-03-15T04:02:48.865Z,36.07
2019-03-15T04:05:17.714Z,35.88
2019-03-15T04:07:46.555Z,34.73
2019-03-15T04:10:15.401Z,35.60
2019-03-15T04:12:44.239Z,36.30
2019-03-15T04:15:13.006Z,36.63
2019-03-15T04:17:41.846Z,37.43
2019-03-15T04:20:14.287Z,39.27
2019-03-15T04:22:43.124Z,37.83
2019-03-15T04:25:11.894Z,39.70
2019-03-15T04:27:40.728Z,40.07
2019-03-15T04:30:13.609Z,42.13
2019-03-15T04:32:42.440Z,43.20
2019-03-15T04:35:11.281Z,41.97
2019-03-15T04:37:40.151Z,41.40
2019-03-15T04:40:11.287Z,41.63
2019-03-15T04:42:40.130Z,40.60
2019-03-15T04:45:09.283Z,41.30
2019-03-15T04:47:38.060Z,38.77
2019-03-15T04:50:07.635Z,43.70
2019-03-15T04:52:36.469Z,46.73
2019-03-15T04:55:06.305Z,45.37
2019-03-15T04:57:35.224Z,53.07
2019-03-15T05:00:04.785Z,48.30
2019-03-15T05:02:33.685Z,60.13
2019-03-15T05:05:02.523Z,50.03
2019-03-15T05:07:31.400Z,48.30
2019-03-15T05:10:00.404Z,47.43
2019-03-15T05:12:29.186Z,54.30
2019-03-15T05:14:57.973Z,48.77
2019-03-15T05:17:26.790Z,45.10
2019-03-15T05:19:55.620Z,42.77
2019-03-15T05:22:24.398Z,39.53
2019-03-15T05:24:53.248Z,42.23
2019-03-15T05:27:22.080Z,44.53
2019-03-15T05:29:50.925Z,47.63
2019-03-15T05:32:19.691Z,48.70
2019-03-15T05:34:48.492Z,45.43
2019-03-15T05:37:17.276Z,44.10
2019-03-15T05:39:46.058Z,45.27
2019-03-15T05:42:14.897Z,45.03
2019-03-15T05:44:43.730Z,46.77
2019-03-15T05:47:12.568Z,47.90
2019-03-15T05:49:41.409Z,49.03
2019-03-15T05:52:10.264Z,44.37
2019-03-15T05:54:39.126Z,41.40
2019-03-15T05:57:08.479Z,39.30
2019-03-15T05:59:37.923Z,37.33
2019-03-15T06:02:07.369Z,37.73
2019-03-15T06:04:36.856Z,38.23
2019-03-15T06:07:06.219Z,38.23
2019-03-15T06:09:35.654Z,36.00
2019-03-15T06:12:05.034Z,39.27
2019-03-15T06:14:34.485Z,37.63
2019-03-15T06:17:03.918Z,37.10
2019-03-15T06:19:33.352Z,37.13
2019-03-15T06:22:02.818Z,38.23
2019-03-15T06:24:32.250Z,41.23
2019-03-15T06:27:01.645Z,43.30
2019-03-15T06:29:31.041Z,42.35
2019-03-15T06:32:00.427Z,36.23
2019-03-15T06:34:29.876Z,37.13
2019-03-15T06:36:59.235Z,36.33
2019-03-15T06:39:28.686Z,36.60
2019-03-15T06:41:58.137Z,37.28
2019-03-15T06:44:27.571Z,31.70
2019-03-15T06:46:56.994Z,25.88
2019-03-15T06:49:26.372Z,26.85
2019-03-15T06:51:55.720Z,17.73
2019-03-15T06:54:25.085Z,16.67
2019-03-15T06:56:54.518Z,18.20
2019-03-15T06:59:23.888Z,18.45
2019-03-15T07:01:53.273Z,17.55
2019-03-15T07:04:22.659Z,16.48
2019-03-15T07:06:52.042Z,16.10
2019-03-15T07:09:21.422Z,17.17
2019-03-15T07:11:50.793Z,17.60
2019-03-15T07:14:20.398Z,17.80
2019-03-15T07:16:49.771Z,18.75
2019-03-15T07:19:26.047Z,17.55
2019-03-15T07:21:50.307Z,17.65
2019-03-15T07:24:24.936Z,17.95
2019-03-15T07:26:50.941Z,18.25
2019-03-15T07:29:20.435Z,17.70
2019-03-15T07:31:49.784Z,18.32
2019-03-15T07:34:19.237Z,18.90
2019-03-15T07:36:48.618Z,17.32
2019-03-15T07:39:18.003Z,18.37
2019-03-15T07:41:47.447Z,18.92
2019-03-15T07:44:16.888Z,18.37
2019-03-15T07:46:46.256Z,19.30
2019-03-15T07:49:15.695Z,19.82
2019-03-15T07:51:45.053Z,20.97
2019-03-15T07:54:14.417Z,19.98
2019-03-15T07:56:43.855Z,21.37
2019-03-15T07:59:13.298Z,27.75
2019-03-15T08:01:42.672Z,18.52
2019-03-15T08:04:17.063Z,24.10
2019-03-15T08:06:43.153Z,20.65
2019-03-15T08:09:12.500Z,19.92
2019-03-15T08:11:41.872Z,26.27
2019-03-15T08:14:11.302Z,17.87
2019-03-15T08:16:40.746Z,18.70
2019-03-15T08:19:10.131Z,17.02
2019-03-15T08:21:39.498Z,16.90
2019-03-15T08:24:08.933Z,16.40
2019-03-15T08:26:38.304Z,17.02
2019-03-15T08:29:09.614Z,17.40
2019-03-15T08:31:38.908Z,15.43
2019-03-15T08:34:08.338Z,12.73
2019-03-15T08:36:37.780Z,14.47
2019-03-15T08:39:07.535Z,14.58
2019-03-15T08:41:36.978Z,15.70
2019-03-15T08:44:06.411Z,13.85
2019-03-15T08:46:35.837Z,13.03
2019-03-15T08:49:05.256Z,12.13
2019-03-15T08:51:34.610Z,12.68
2019-03-15T08:54:04.139Z,10.03
2019-03-15T08:56:33.512Z,10.98
2019-03-15T08:59:02.883Z,13.03
2019-03-15T09:01:32.248Z,11.33
2019-03-15T09:04:01.685Z,11.45
2019-03-15T09:06:31.119Z,12.07
2019-03-15T09:09:00.557Z,12.23
2019-03-15T09:11:30.014Z,11.35
2019-03-15T09:13:59.516Z,10.13
2019-03-15T09:16:28.916Z,11.68
2019-03-15T09:18:58.346Z,11.30
2019-03-15T09:21:27.781Z,12.25
2019-03-15T09:23:57.150Z,11.25
2019-03-15T09:26:26.592Z,12.25
2019-03-15T09:28:55.951Z,12.00
2019-03-15T09:31:25.319Z,11.93
2019-03-15T09:33:54.687Z,11.70
2019-03-15T09:36:24.088Z,10.95
2019-03-15T09:38:53.541Z,12.43
2019-03-15T09:41:31.970Z,11.93
2019-03-15T09:43:53.995Z,12.37
2019-03-15T09:46:23.421Z,11.65
2019-03-15T09:48:52.824Z,12.37
2019-03-15T09:51:22.269Z,12.25
2019-03-15T09:53:51.692Z,11.60
2019-03-15T09:56:21.121Z,10.40
2019-03-15T09:58:50.472Z,10.18
2019-03-15T10:01:34.156Z,8.15
2019-03-15T10:03:50.898Z,8.53
2019-03-15T10:06:20.332Z,7.53
2019-03-15T10:08:49.759Z,9.15
2019-03-15T10:11:19.120Z,7.80
2019-03-15T10:13:48.548Z,8.40
2019-03-15T10:16:17.977Z,9.20
2019-03-15T10:18:50.344Z,9.08
2019-03-15T10:21:18.476Z,8.80
2019-03-15T10:23:47.909Z,8.78
2019-03-15T10:26:17.277Z,8.18
2019-03-15T10:28:46.724Z,7.85
2019-03-15T10:31:17.501Z,7.45
2019-03-15T10:33:50.791Z,6.85
2019-03-15T10:36:18.008Z,7.10
2019-03-15T10:38:47.451Z,8.58
2019-03-15T10:41:16.876Z,7.05
2019-03-15T10:43:46.320Z,6.75
2019-03-15T10:46:15.666Z,6.50
2019-03-15T10:48:45.019Z,5.70
2019-03-15T10:51:14.363Z,6.00
2019-03-15T10:53:43.706Z,6.50
2019-03-15T10:56:13.150Z,6.25
2019-03-15T10:58:42.514Z,5.75
2019-03-15T11:01:11.941Z,6.67
2019-03-15T11:03:41.374Z,6.75
2019-03-15T11:06:10.721Z,6.67
2019-03-15T11:08:40.163Z,6.50
2019-03-15T11:11:09.511Z,6.70
2019-03-15T11:13:38.956Z,6.55
2019-03-15T11:16:08.373Z,6.28
2019-03-15T11:18:37.750Z,6.45
2019-03-15T11:21:07.205Z,5.58
2019-03-15T11:23:36.530Z,6.58
2019-03-15T11:26:13.547Z,6.55
2019-03-15T11:28:36.965Z,7.15
2019-03-15T11:31:06.389Z,7.33
2019-03-15T11:33:35.750Z,6.78
2019-03-15T11:36:05.109Z,6.85
2019-03-15T11:38:34.458Z,7.00
2019-03-15T11:41:03.823Z,6.65
2019-03-15T11:43:33.171Z,6.92
2019-03-15T11:46:02.528Z,6.15
2019-03-15T11:48:31.872Z,6.58
2019-03-15T11:51:01.298Z,6.67
2019-03-15T11:53:30.776Z,6.78
2019-03-15T11:56:00.120Z,6.17
2019-03-15T11:58:29.467Z,6.22
2019-03-15T12:00:58.894Z,5.83
2019-03-15T12:03:28.228Z,6.37
2019-03-15T12:05:57.643Z,6.37
2019-03-15T12:08:27.002Z,5.42
2019-03-15T12:10:56.340Z,5.78
2019-03-15T12:13:25.764Z,6.30
2019-03-15T12:15:55.121Z,7.17
2019-03-15T12:18:24.552Z,6.47
2019-03-15T12:20:53.979Z,5.25
2019-03-15T12:23:23.412Z,5.80
2019-03-15T12:25:52.828Z,6.35
2019-03-15T12:28:22.185Z,4.75
2019-03-15T12:30:51.543Z,5.10
2019-03-15T12:33:20.900Z,5.03
2019-03-15T12:35:50.250Z,4.80
2019-03-15T12:38:19.677Z,5.12
2019-03-15T12:40:49.116Z,5.12
2019-03-15T12:43:18.452Z,5.10
2019-03-15T12:45:47.805Z,4.92
2019-03-15T12:48:17.233Z,5.45
2019-03-15T12:50:46.661Z,5.85
2019-03-15T12:53:16.062Z,5.75
2019-03-15T12:55:45.483Z,5.15
2019-03-15T12:58:14.899Z,5.42
2019-03-15T13:00:44.330Z,4.70
2019-03-15T13:03:13.777Z,4.85
2019-03-15T13:05:43.207Z,5.22
2019-03-15T13:08:12.555Z,5.55
2019-03-15T13:10:41.987Z,5.03
2019-03-15T13:13:11.408Z,5.05
2019-03-15T13:15:40.855Z,5.30
2019-03-15T13:18:10.277Z,5.15
2019-03-15T13:20:39.617Z,5.33
2019-03-15T13:23:09.041Z,5.20
2019-03-15T13:25:38.414Z,6.08
2019-03-15T13:28:07.763Z,5.35
2019-03-15T13:30:37.191Z,4.70
2019-03-15T13:33:19.112Z,4.90
2019-03-15T13:35:37.702Z,5.20
2019-03-15T13:38:07.067Z,4.92
2019-03-15T13:40:36.417Z,5.03
2019-03-15T13:43:05.773Z,5.28
2019-03-15T13:45:35.193Z,4.65
2019-03-15T13:48:04.616Z,4.53
2019-03-15T13:50:33.972Z,4.72
2019-03-15T13:53:03.327Z,5.17
2019-03-15T13:55:32.681Z,5.20
2019-03-15T13:58:02.104Z,4.62
2019-03-15T14:00:31.459Z,4.12
2019-03-15T14:03:00.884Z,4.33
2019-03-15T14:05:30.237Z,6.53
2019-03-15T14:08:11.265Z,5.62
2019-03-15T14:10:30.757Z,4.78
2019-03-15T14:13:00.117Z,4.45
2019-03-15T14:15:29.534Z,4.35
2019-03-15T14:17:58.999Z,4.53
2019-03-15T14:20:28.440Z,4.58
2019-03-15T14:22:57.849Z,4.60
2019-03-15T14:25:28.175Z,4.50
2019-03-15T14:27:57.625Z,7.33
2019-03-15T14:30:27.047Z,7.75
2019-03-15T14:32:56.408Z,4.62
2019-03-15T14:35:25.836Z,5.05
2019-03-15T14:37:55.363Z,4.40
2019-03-15T14:40:25.059Z,4.67
2019-03-15T14:42:54.636Z,5.05
2019-03-15T14:45:24.247Z,5.17
2019-03-15T14:47:53.643Z,4.55
2019-03-15T14:50:23.073Z,6.25
2019-03-15T14:52:52.414Z,4.28
2019-03-15T14:55:21.843Z,4.15
2019-03-15T14:57:53.311Z,3.95
2019-03-15T15:00:22.351Z,5.20
2019-03-15T15:02:51.769Z,5.08
2019-03-15T15:05:21.131Z,11.93
2019-03-15T15:07:50.497Z,4.37
2019-03-15T15:10:20.026Z,6.25
2019-03-15T15:12:49.505Z,8.48
2019-03-15T15:15:22.154Z,5.65
2019-03-15T15:17:51.581Z,9.13
2019-03-15T15:20:21.011Z,7.40
2019-03-15T15:22:50.442Z,7.35
2019-03-15T15:25:19.892Z,8.10
2019-03-15T15:27:49.306Z,6.12
2019-03-15T15:30:19.049Z,7.53
2019-03-15T15:32:48.483Z,6.67
2019-03-15T15:35:17.858Z,16.30
2019-03-15T15:37:47.302Z,12.80
2019-03-15T15:40:18.526Z,10.90
2019-03-15T15:42:47.893Z,7.67
2019-03-15T15:45:17.258Z,9.63
2019-03-15T15:47:46.701Z,12.30
2019-03-15T15:50:16.562Z,12.65
2019-03-15T15:52:46.016Z,13.25
2019-03-15T15:55:16.245Z,13.32
2019-03-15T15:57:45.675Z,18.55
2019-03-15T16:00:18.505Z,12.25
2019-03-15T16:02:47.950Z,15.90
2019-03-15T16:05:17.373Z,22.73
2019-03-15T16:07:46.817Z,27.55
2019-03-15T16:10:18.256Z,21.45
2019-03-15T16:12:47.573Z,28.77
2019-03-15T16:15:19.993Z,29.63
2019-03-15T16:17:49.432Z,14.68
2019-03-15T16:20:18.874Z,17.87
2019-03-15T16:22:48.320Z,23.90
2019-03-15T16:25:17.769Z,88.07
2019-03-15T16:27:47.149Z,123.13
2019-03-15T16:30:18.587Z,76.50
2019-03-15T16:32:48.252Z,63.92
2019-03-15T16:35:17.701Z,109.97
2019-03-15T16:37:47.071Z,26.07
2019-03-15T16:40:16.807Z,34.78
2019-03-15T16:42:46.192Z,40.17
2019-03-15T16:45:24.131Z,28.60
2019-03-15T16:47:53.498Z,40.25
2019-03-15T16:50:22.956Z,44.25
2019-03-15T16:52:52.381Z,29.72
2019-03-15T16:55:21.801Z,28.25
2019-03-15T16:57:51.262Z,85.15
2019-03-15T17:00:20.710Z,62.93
2019-03-15T17:02:50.178Z,220.33
2019-03-15T17:05:19.601Z,55.43
2019-03-15T17:07:49.033Z,94.35
2019-03-15T17:10:20.054Z,58.50
2019-03-15T17:12:49.493Z,50.20
2019-03-15T17:15:21.492Z,22.62
2019-03-15T17:17:50.940Z,24.87
2019-03-15T17:20:20.380Z,45.78
2019-03-15T17:22:49.807Z,50.75
2019-03-15T17:25:19.233Z,43.95
2019-03-15T17:27:48.682Z,51.18
2019-03-15T17:30:18.619Z,69.80
2019-03-15T17:32:48.055Z,83.00
2019-03-15T17:35:21.223Z,47.43
2019-03-15T17:37:50.655Z,27.37
2019-03-15T17:40:21.009Z,27.42
2019-03-15T17:42:50.371Z,33.65
2019-03-15T17:45:19.749Z,24.85
2019-03-15T17:47:49.182Z,16.87
2019-03-15T17:50:22.978Z,16.80
2019-03-15T17:52:52.403Z,16.60
2019-03-15T17:55:21.864Z,22.60
2019-03-15T17:57:51.307Z,17.77
2019-03-15T18:00:27.967Z,17.25
2019-03-15T18:02:57.524Z,26.40
2019-03-15T18:05:26.953Z,41.58
2019-03-15T18:07:56.424Z,34.85
2019-03-15T18:10:25.842Z,32.48
2019-03-15T18:12:55.284Z,28.70
2019-03-15T18:15:24.729Z,37.90
2019-03-15T18:17:54.188Z,42.78
2019-03-15T18:20:23.620Z,44.93
2019-03-15T18:22:53.077Z,30.92
2019-03-15T18:25:22.565Z,29.42
2019-03-15T18:27:52.807Z,27.02
2019-03-15T18:30:22.318Z,20.68
2019-03-15T18:32:51.804Z,25.95
2019-03-15T18:35:32.959Z,26.07
2019-03-15T18:37:52.651Z,19.95
2019-03-15T18:40:22.118Z,18.73
2019-03-15T18:42:51.569Z,17.80
2019-03-15T18:45:21.008Z,16.73
2019-03-15T18:47:50.654Z,15.90
2019-03-15T18:50:24.774Z,15.90
2019-03-15T18:52:54.155Z,17.12
2019-03-15T18:55:23.613Z,16.00
2019-03-15T18:57:53.042Z,17.23
2019-03-15T19:00:23.640Z,19.23
2019-03-15T19:02:53.084Z,18.62
2019-03-15T19:05:22.546Z,18.25
2019-03-15T19:07:51.931Z,16.10
2019-03-15T19:10:21.396Z,18.50
2019-03-15T19:12:50.914Z,21.20
2019-03-15T19:15:21.550Z,18.80
2019-03-15T19:17:51.011Z,19.60
2019-03-15T19:20:20.387Z,23.18
2019-03-15T19:22:49.844Z,24.15
2019-03-15T19:25:19.294Z,23.18
2019-03-15T19:27:48.773Z,23.60
2019-03-15T19:30:21.241Z,18.60
2019-03-15T19:32:58.906Z,16.98
2019-03-15T19:35:30.160Z,15.72
2019-03-15T19:37:59.614Z,12.73
2019-03-15T19:40:29.072Z,12.68
2019-03-15T19:42:58.522Z,14.58
2019-03-15T19:45:28.053Z,12.05
2019-03-15T19:47:57.580Z,15.30
2019-03-15T19:50:27.033Z,21.25
2019-03-15T19:52:56.480Z,17.87
2019-03-15T19:55:25.996Z,26.45
2019-03-15T19:57:55.441Z,52.20
2019-03-15T20:00:24.945Z,41.23
2019-03-15T20:02:54.391Z,16.35
2019-03-15T20:05:23.758Z,13.78
2019-03-15T20:07:53.326Z,11.73
2019-03-15T20:10:22.805Z,10.85
2019-03-15T20:12:52.262Z,9.85
2019-03-15T20:15:21.630Z,11.28
2019-03-15T20:17:51.056Z,8.73
2019-03-15T20:20:20.979Z,10.58
2019-03-15T20:22:50.422Z,13.20
2019-03-15T20:25:19.840Z,9.53
2019-03-15T20:27:49.254Z,8.68
2019-03-15T20:30:25.974Z,7.97
2019-03-15T20:32:51.068Z,8.90
2019-03-15T20:35:20.510Z,8.33
2019-03-15T20:37:49.964Z,7.25
2019-03-15T20:40:19.408Z,7.30
2019-03-15T20:42:48.774Z,8.35
2019-03-15T20:45:26.109Z,7.85
2019-03-15T20:47:55.513Z,8.28
2019-03-15T20:50:24.944Z,8.70
2019-03-15T20:53:07.251Z,10.30
2019-03-15T20:55:28.539Z,10.78
2019-03-15T20:57:56.729Z,8.65
2019-03-15T21:00:35.508Z,8.95
2019-03-15T21:02:57.250Z,10.25
2019-03-15T21:05:26.702Z,9.20
2019-03-15T21:07:56.120Z,8.20
2019-03-15T21:10:25.499Z,8.10
2019-03-15T21:12:54.854Z,7.60
2019-03-15T21:15:24.283Z,8.55
2019-03-15T21:17:53.627Z,8.08
2019-03-15T21:20:23.196Z,7.17
2019-03-15T21:22:52.583Z,9.33
2019-03-15T21:25:21.962Z,7.60
2019-03-15T21:27:54.142Z,7.25
2019-03-15T21:30:25.320Z,6.90
2019-03-15T21:32:54.744Z,6.45
2019-03-15T21:35:24.189Z,7.30
2019-03-15T21:37:53.625Z,6.60
2019-03-15T21:40:23.362Z,6.87
2019-03-15T21:42:52.785Z,7.70
2019-03-15T21:45:22.215Z,7.87
2019-03-15T21:47:51.638Z,7.72
2019-03-15T21:50:24.239Z,7.45
2019-03-15T21:52:53.658Z,7.72
2019-03-15T21:55:23.087Z,8.40
2019-03-15T21:57:52.518Z,7.45
2019-03-15T22:00:21.951Z,7.22
2019-03-15T22:02:51.362Z,6.60
2019-03-15T22:05:20.793Z,6.25
2019-03-15T22:07:50.214Z,6.55
2019-03-15T22:10:19.561Z,5.60
2019-03-15T22:12:48.925Z,6.58
2019-03-15T22:15:18.369Z,6.25
2019-03-15T22:17:47.879Z,6.03
2019-03-15T22:20:17.784Z,5.42
2019-03-15T22:22:47.144Z,5.80
2019-03-15T22:25:16.506Z,5.75
2019-03-15T22:27:45.960Z,5.80
2019-03-15T22:30:15.672Z,6.97
2019-03-15T22:32:45.107Z,7.10
2019-03-15T22:35:14.450Z,7.62
2019-03-15T22:37:43.807Z,6.67
2019-03-15T22:40:14.252Z,6.22
2019-03-15T22:42:43.683Z,6.28
2019-03-15T22:45:14.411Z,6.72
2019-03-15T22:47:43.829Z,6.58
2019-03-15T22:50:14.243Z,6.33
2019-03-15T22:52:43.614Z,7.00
2019-03-15T22:55:13.054Z,6.87
2019-03-15T22:57:42.490Z,7.72
2019-03-15T23:00:16.762Z,8.85
2019-03-15T23:02:45.616Z,10.53
2019-03-15T23:05:14.823Z,10.77
2019-03-15T23:07:44.288Z,10.35
2019-03-15T23:10:13.728Z,11.78
2019-03-15T23:12:42.509Z,127.97
2019-03-15T23:15:11.979Z,13.87
2019-03-15T23:17:40.753Z,10.10
2019-03-15T23:20:11.820Z,9.07
2019-03-15T23:22:40.620Z,9.07
2019-03-15T23:25:09.688Z,8.40
2019-03-15T23:27:38.527Z,8.07
2019-03-15T23:30:12.950Z,8.03
2019-03-15T23:32:41.935Z,8.20
2019-03-15T23:35:10.778Z,8.37
2019-03-15T23:37:39.609Z,8.23
2019-03-15T23:40:10.816Z,8.20
2019-03-15T23:42:39.767Z,8.10
2019-03-15T23:45:10.056Z,7.50
2019-03-15T23:47:38.835Z,8.53
2019-03-15T23:50:12.997Z,9.30
2019-03-15T23:52:41.835Z,9.23
2019-03-15T23:55:10.874Z,9.00
2019-03-15T23:57:39.643Z,11.03
